Time;durP1;ratioP1;P1;durP2;ratioP2;P2;SDS_P1;SDS_P2;PMS_P1;PMS_P2;Temp;Humidity;BMP_temperature;BMP_pressure;BME280_temperature;BME280_humidity;BME280_pressure;Samples;Min_cycle;Max_cycle;Signal;HPM_P1;HPM_P2
2022/05/15 00:01:53;;;;;;;6.35;2.95;;;;;;;;;;4981550;28;20039;-85
2022/05/15 00:04:19;;;;;;;6.65;2.97;;;;;;;;;;4981788;28;20110;-85
2022/05/15 00:06:45;;;;;;;4.47;2.78;;;;;;;;;;4983147;28;20038;-85
2022/05/15 00:09:10;;;;;;;5.55;2.72;;;;;;;;;;4981616;28;20050;-84
2022/05/15 00:11:36;;;;;;;5.20;2.65;;;;;;;;;;4981701;28;20027;-85
2022/05/15 00:14:02;;;;;;;7.93;2.85;;;;;;;;;;4980693;28;20487;-85
2022/05/15 00:16:31;;;;;;;6.45;2.72;;;;;;;;;;4981159;28;20038;-85
2022/05/15 00:18:57;;;;;;;4.15;2.67;;;;;;;;;;4980660;28;20500;-85
2022/05/15 00:21:23;;;;;;;5.30;2.92;;;;;;;;;;4980391;28;20031;-85
2022/05/15 00:23:49;;;;;;;5.70;3.00;;;;;;;;;;4981397;28;20042;-85
2022/05/15 00:26:14;;;;;;;12.05;2.90;;;;;;;;;;4980081;28;20407;-86
2022/05/15 00:28:40;;;;;;;4.88;2.78;;;;;;;;;;4979387;28;20414;-86
2022/05/15 00:31:06;;;;;;;5.28;2.97;;;;;;;;;;4946992;28;20514;-85
2022/05/15 00:33:32;;;;;;;5.53;2.90;;;;;;;;;;4979051;28;20041;-85
2022/05/15 00:35:57;;;;;;;5.38;3.00;;;;;;;;;;4962456;28;20053;-85
2022/05/15 00:38:23;;;;;;;7.43;2.88;;;;;;;;;;4980271;28;20062;-85
2022/05/15 00:40:49;;;;;;;5.35;2.90;;;;;;;;;;4963200;28;20050;-85
2022/05/15 00:43:42;;;;;;;5.65;3.20;;;;;;;;;;4980565;28;20035;-85
2022/05/15 00:46:29;;;;;;;7.13;3.08;;;;;;;;;;4962700;28;20047;-85
2022/05/15 00:48:56;;;;;;;5.45;2.80;;;;;;;;;;4980146;28;20039;-85
2022/05/15 00:51:31;;;;;;;5.22;2.80;;;;;;;;;;4978820;28;20041;-85
2022/05/15 00:54:07;;;;;;;5.00;2.90;;;;;;;;;;4980451;28;20470;-85
2022/05/15 00:56:39;;;;;;;4.00;2.80;;;;;;;;;;4982456;28;20049;-85
2022/05/15 00:59:11;;;;;;;3.53;2.83;;;;;;;;;;4983420;28;20034;-85
2022/05/15 01:01:36;;;;;;;6.47;3.10;;;;;;;;;;4966663;28;20035;-85
2022/05/15 01:04:02;;;;;;;5.70;3.28;;;;;;;;;;4966440;28;20030;-85
2022/05/15 01:06:29;;;;;;;5.75;2.90;;;;;;;;;;4984468;28;20066;-85
2022/05/15 01:08:55;;;;;;;4.78;2.80;;;;;;;;;;4965976;28;20093;-85
2022/05/15 01:11:22;;;;;;;4.47;2.85;;;;;;;;;;4966060;28;20030;-85
2022/05/15 01:13:49;;;;;;;7.50;3.53;;;;;;;;;;4983064;28;20047;-84
2022/05/15 01:16:22;;;;;;;4.97;3.00;;;;;;;;;;4983379;28;20113;-85
2022/05/15 01:18:47;;;;;;;3.90;2.92;;;;;;;;;;4966460;28;20058;-85
2022/05/15 01:21:22;;;;;;;5.72;3.10;;;;;;;;;;4983753;28;20492;-85
2022/05/15 01:23:49;;;;;;;7.40;2.67;;;;;;;;;;4966790;28;20081;-85
2022/05/15 01:26:15;;;;;;;4.55;3.00;;;;;;;;;;4965874;28;20090;-85
2022/05/15 01:28:42;;;;;;;5.47;3.08;;;;;;;;;;4983683;28;20492;-85
2022/05/15 01:31:08;;;;;;;6.68;3.00;;;;;;;;;;4966567;28;20041;-85
2022/05/15 01:33:33;;;;;;;5.28;2.72;;;;;;;;;;4966130;28;20054;-85
2022/05/15 01:35:59;;;;;;;3.97;3.00;;;;;;;;;;4966366;28;20070;-85
2022/05/15 01:38:24;;;;;;;6.20;3.13;;;;;;;;;;4966090;28;20062;-85
2022/05/15 01:40:50;;;;;;;5.00;3.08;;;;;;;;;;4982421;28;20488;-85
2022/05/15 01:43:18;;;;;;;7.20;3.00;;;;;;;;;;4966281;28;20398;-85
2022/05/15 01:45:44;;;;;;;3.83;2.97;;;;;;;;;;4983234;28;20400;-85
2022/05/15 01:48:11;;;;;;;5.53;3.10;;;;;;;;;;4965943;28;20015;-85
2022/05/15 01:50:37;;;;;;;4.82;2.72;;;;;;;;;;4966197;28;20515;-84
2022/05/15 01:53:03;;;;;;;6.75;3.05;;;;;;;;;;4982466;28;20035;-85
2022/05/15 01:55:29;;;;;;;7.55;3.20;;;;;;;;;;4965878;28;20068;-85
2022/05/15 01:57:54;;;;;;;6.25;3.22;;;;;;;;;;4965353;28;20045;-85
2022/05/15 02:00:24;;;;;;;7.15;3.17;;;;;;;;;;4966046;28;20098;-85
2022/05/15 02:02:50;;;;;;;5.25;3.03;;;;;;;;;;4981459;28;20026;-86
2022/05/15 02:05:18;;;;;;;9.75;3.50;;;;;;;;;;4965649;28;20411;-85
2022/05/15 02:07:44;;;;;;;6.60;3.67;;;;;;;;;;4948214;28;20126;-85
2022/05/15 02:10:12;;;;;;;7.78;3.20;;;;;;;;;;4965337;28;20042;-84
2022/05/15 02:12:39;;;;;;;5.15;2.90;;;;;;;;;;4964140;28;20118;-85
2022/05/15 02:15:06;;;;;;;4.38;2.92;;;;;;;;;;4982309;28;20047;-85
2022/05/15 02:17:31;;;;;;;6.63;3.20;;;;;;;;;;4965286;28;20122;-85
2022/05/15 02:19:57;;;;;;;5.07;2.78;;;;;;;;;;4983246;28;20121;-85
2022/05/15 02:22:23;;;;;;;6.68;3.20;;;;;;;;;;4965682;28;20034;-85
2022/05/15 02:24:49;;;;;;;6.63;3.70;;;;;;;;;;4965773;28;20035;-85
2022/05/15 02:27:15;;;;;;;5.03;3.10;;;;;;;;;;4964893;28;20041;-84
2022/05/15 02:29:41;;;;;;;7.72;3.10;;;;;;;;;;4964939;28;20125;-85
2022/05/15 02:32:07;;;;;;;5.82;2.90;;;;;;;;;;4981279;28;20529;-85
2022/05/15 02:34:32;;;;;;;7.20;3.30;;;;;;;;;;4964946;28;20027;-85
2022/05/15 02:37:00;;;;;;;6.30;3.13;;;;;;;;;;4965006;28;20039;-85
2022/05/15 02:39:25;;;;;;;6.25;3.03;;;;;;;;;;4981072;28;20035;-85
2022/05/15 02:41:52;;;;;;;4.25;2.70;;;;;;;;;;4981122;28;20035;-85
2022/05/15 02:44:18;;;;;;;5.07;2.95;;;;;;;;;;4980570;28;20137;-84
2022/05/15 02:46:43;;;;;;;6.40;3.10;;;;;;;;;;4964421;28;20057;-84
2022/05/15 02:51:53;;;;;;;5.10;3.08;;;;;;;;;;4980726;28;20137;-85
2022/05/15 02:54:19;;;;;;;5.78;3.28;;;;;;;;;;4980587;28;20575;-84
2022/05/15 02:56:45;;;;;;;6.32;2.78;;;;;;;;;;4980737;28;20066;-85
2022/05/15 02:59:11;;;;;;;5.50;3.28;;;;;;;;;;4964548;28;20030;-85
2022/05/15 03:01:37;;;;;;;5.88;3.38;;;;;;;;;;4965051;28;20055;-85
2022/05/15 03:04:03;;;;;;;6.45;3.20;;;;;;;;;;4980123;28;20114;-85
2022/05/15 03:06:29;;;;;;;10.82;3.20;;;;;;;;;;4964729;28;20491;-84
2022/05/15 03:08:54;;;;;;;5.55;3.00;;;;;;;;;;4981280;28;20038;-84
2022/05/15 03:11:20;;;;;;;3.83;3.05;;;;;;;;;;4964382;28;20034;-85
2022/05/15 03:13:46;;;;;;;8.43;3.10;;;;;;;;;;4981491;28;20058;-85
2022/05/15 03:16:13;;;;;;;5.70;3.03;;;;;;;;;;4964424;28;20039;-85
2022/05/15 03:18:41;;;;;;;5.13;2.92;;;;;;;;;;4963733;28;20033;-85
2022/05/15 03:21:08;;;;;;;4.47;2.90;;;;;;;;;;4964295;28;20049;-85
2022/05/15 03:23:33;;;;;;;5.13;2.90;;;;;;;;;;4963230;28;20035;-85
2022/05/15 03:25:59;;;;;;;7.85;3.40;;;;;;;;;;4979454;28;20097;-84
2022/05/15 03:28:24;;;;;;;4.43;3.00;;;;;;;;;;4980010;28;20034;-85
2022/05/15 03:30:50;;;;;;;6.55;3.10;;;;;;;;;;4980276;28;20031;-85
2022/05/15 03:33:15;;;;;;;6.32;3.20;;;;;;;;;;4980468;28;20034;-85
2022/05/15 03:35:42;;;;;;;5.35;3.40;;;;;;;;;;4979399;28;20034;-85
2022/05/15 03:38:08;;;;;;;5.65;3.20;;;;;;;;;;4980954;28;20105;-85
2022/05/15 03:40:35;;;;;;;4.43;3.22;;;;;;;;;;4979646;28;20035;-85
2022/05/15 03:43:00;;;;;;;6.47;3.10;;;;;;;;;;4963225;28;20019;-85
2022/05/15 03:45:26;;;;;;;4.05;2.90;;;;;;;;;;4963168;28;20042;-84
2022/05/15 03:47:54;;;;;;;8.30;3.25;;;;;;;;;;4963827;28;20038;-84
2022/05/15 03:50:23;;;;;;;5.47;3.10;;;;;;;;;;4963891;28;20034;-84
2022/05/15 03:52:49;;;;;;;5.80;3.35;;;;;;;;;;4979711;28;20057;-85
2022/05/15 03:55:15;;;;;;;4.50;3.38;;;;;;;;;;4963520;28;20023;-85
2022/05/15 03:57:41;;;;;;;4.82;3.35;;;;;;;;;;4979539;28;20042;-85
2022/05/15 04:00:10;;;;;;;6.88;3.35;;;;;;;;;;4962542;28;20037;-84
2022/05/15 04:02:39;;;;;;;7.70;3.70;;;;;;;;;;4979439;28;20038;-85
2022/05/15 04:05:07;;;;;;;5.47;3.30;;;;;;;;;;4978418;28;20026;-84
2022/05/15 04:07:33;;;;;;;8.73;3.20;;;;;;;;;;4979429;28;20031;-85
2022/05/15 04:09:59;;;;;;;5.78;3.17;;;;;;;;;;4962143;28;20043;-85
2022/05/15 04:12:25;;;;;;;7.13;3.83;;;;;;;;;;4962181;28;20035;-84
2022/05/15 04:14:50;;;;;;;4.95;3.33;;;;;;;;;;4979303;28;20057;-85
2022/05/15 04:17:16;;;;;;;6.55;3.80;;;;;;;;;;4962328;28;20034;-85
2022/05/15 04:19:41;;;;;;;6.53;3.58;;;;;;;;;;4961500;28;20031;-84
2022/05/15 04:22:07;;;;;;;5.70;3.35;;;;;;;;;;4961854;28;20039;-85
2022/05/15 04:24:34;;;;;;;4.75;3.30;;;;;;;;;;4946083;28;20527;-84
2022/05/15 04:27:01;;;;;;;7.35;3.47;;;;;;;;;;4978070;28;20030;-84
2022/05/15 04:29:27;;;;;;;6.32;3.38;;;;;;;;;;4962754;28;20058;-85
2022/05/15 04:31:56;;;;;;;4.47;3.10;;;;;;;;;;4961555;28;20034;-85
2022/05/15 04:34:27;;;;;;;6.05;3.25;;;;;;;;;;4977884;28;20051;-84
2022/05/15 04:36:53;;;;;;;12.35;3.63;;;;;;;;;;4978175;28;20541;-85
2022/05/15 04:39:19;;;;;;;6.95;3.50;;;;;;;;;;4979276;28;20058;-84
2022/05/15 04:41:45;;;;;;;5.30;3.30;;;;;;;;;;4979043;28;20043;-84
2022/05/15 04:44:11;;;;;;;5.45;3.47;;;;;;;;;;4978681;28;20110;-85
2022/05/15 04:46:37;;;;;;;6.20;3.50;;;;;;;;;;4979006;28;20065;-85
2022/05/15 04:49:02;;;;;;;5.60;3.10;;;;;;;;;;4978689;28;20058;-85
2022/05/15 04:51:28;;;;;;;5.35;3.08;;;;;;;;;;4961957;28;20418;-84
2022/05/15 04:53:54;;;;;;;8.43;3.60;;;;;;;;;;4961837;28;20045;-84
2022/05/15 04:56:21;;;;;;;5.55;3.40;;;;;;;;;;4978290;28;20043;-84
2022/05/15 04:58:46;;;;;;;6.03;3.58;;;;;;;;;;4951566;23;1066468;-87
2022/05/15 05:01:12;;;;;;;7.15;3.67;;;;;;;;;;4957743;28;20035;-88
2022/05/15 05:03:38;;;;;;;6.85;3.30;;;;;;;;;;4955597;28;20492;-87
2022/05/15 05:06:03;;;;;;;4.97;3.45;;;;;;;;;;4964443;28;20051;-88
2022/05/15 05:08:29;;;;;;;7.05;3.47;;;;;;;;;;4955005;28;20090;-90
2022/05/15 05:10:55;;;;;;;5.70;3.25;;;;;;;;;;4954581;29;20043;-85
2022/05/15 05:13:20;;;;;;;5.85;3.20;;;;;;;;;;4939698;29;20031;-89
2022/05/15 05:15:46;;;;;;;5.70;3.50;;;;;;;;;;4939861;29;20047;-88
2022/05/15 05:18:16;;;;;;;5.93;3.60;;;;;;;;;;4954217;29;20040;-88
2022/05/15 05:20:44;;;;;;;8.10;3.40;;;;;;;;;;4939166;29;20032;-88
2022/05/15 05:23:09;;;;;;;7.97;3.30;;;;;;;;;;4938906;29;20114;-87
2022/05/15 05:25:35;;;;;;;7.45;3.28;;;;;;;;;;4952429;29;20071;-88
2022/05/15 05:28:01;;;;;;;7.20;3.42;;;;;;;;;;4952290;28;20024;-89
2022/05/15 05:30:27;;;;;;;8.23;3.40;;;;;;;;;;4951444;29;20637;-88
2022/05/15 05:32:53;;;;;;;8.05;3.50;;;;;;;;;;4951083;28;20437;-88
2022/05/15 05:35:21;;;;;;;5.70;3.30;;;;;;;;;;4951880;29;20501;-88
2022/05/15 05:37:47;;;;;;;5.07;3.35;;;;;;;;;;4935910;29;20032;-88
2022/05/15 05:40:12;;;;;;;5.05;3.50;;;;;;;;;;4962362;28;20131;-89
2022/05/15 05:42:38;;;;;;;6.40;2.78;;;;;;;;;;4955540;28;20035;-89
2022/05/15 05:45:05;;;;;;;6.65;3.10;;;;;;;;;;4956378;29;20049;-89
2022/05/15 05:47:33;;;;;;;5.28;3.28;;;;;;;;;;4955927;28;20436;-88
2022/05/15 05:49:58;;;;;;;6.47;3.28;;;;;;;;;;4941632;29;20051;-87
2022/05/15 05:52:24;;;;;;;4.10;3.05;;;;;;;;;;4940574;29;20405;-87
2022/05/15 05:54:51;;;;;;;5.35;3.00;;;;;;;;;;4939350;29;20042;-87
2022/05/15 05:57:17;;;;;;;6.03;3.03;;;;;;;;;;4939267;29;20063;-87
2022/05/15 05:59:42;;;;;;;4.95;3.30;;;;;;;;;;4953200;29;20031;-87
2022/05/15 06:02:08;;;;;;;5.32;2.80;;;;;;;;;;4961392;28;20072;-87
2022/05/15 06:04:40;;;;;;;5.75;3.25;;;;;;;;;;4955648;28;20039;-88
2022/05/15 06:07:14;;;;;;;7.00;3.00;;;;;;;;;;4954838;29;20255;-88
2022/05/15 06:09:43;;;;;;;5.80;2.60;;;;;;;;;;4953984;28;20457;-88
2022/05/15 06:12:09;;;;;;;5.53;3.00;;;;;;;;;;4939193;29;20413;-87
2022/05/15 06:14:35;;;;;;;4.45;2.90;;;;;;;;;;4953794;28;20050;-88
2022/05/15 06:17:00;;;;;;;5.20;2.97;;;;;;;;;;4939760;29;20035;-89
2022/05/15 06:19:26;;;;;;;4.10;2.75;;;;;;;;;;4939364;29;20050;-87
2022/05/15 06:21:51;;;;;;;7.43;3.05;;;;;;;;;;4939113;29;20024;-89
2022/05/15 06:24:17;;;;;;;5.50;2.70;;;;;;;;;;4939339;29;20036;-87
2022/05/15 06:26:42;;;;;;;3.92;2.60;;;;;;;;;;4939066;29;20039;-89
2022/05/15 06:29:08;;;;;;;5.43;2.47;;;;;;;;;;4938565;29;20042;-88
2022/05/15 06:31:33;;;;;;;5.95;2.80;;;;;;;;;;4939568;29;20044;-88
2022/05/15 06:33:58;;;;;;;4.57;2.55;;;;;;;;;;4936813;29;20079;-86
2022/05/15 06:36:24;;;;;;;7.00;2.70;;;;;;;;;;4952650;28;20138;-87
2022/05/15 06:38:50;;;;;;;5.50;2.80;;;;;;;;;;4953033;28;20071;-87
2022/05/15 06:41:15;;;;;;;6.47;2.60;;;;;;;;;;4952578;28;20035;-88
2022/05/15 06:43:41;;;;;;;5.80;2.80;;;;;;;;;;4937837;29;20023;-87
2022/05/15 06:46:06;;;;;;;4.85;2.63;;;;;;;;;;4951786;29;20412;-88
2022/05/15 06:48:35;;;;;;;5.90;2.63;;;;;;;;;;4962723;28;20040;-87
2022/05/15 06:51:03;;;;;;;6.07;2.78;;;;;;;;;;4951905;28;20032;-88
2022/05/15 06:53:28;;;;;;;7.18;2.60;;;;;;;;;;4952206;28;20076;-87
2022/05/15 06:58:38;;;;;;;5.45;2.40;;;;;;;;;;4959819;28;20015;-87
2022/05/15 07:01:03;;;;;;;4.78;2.58;;;;;;;;;;4938166;29;20122;-88
2022/05/15 07:03:29;;;;;;;9.52;2.78;;;;;;;;;;4937321;29;20095;-87
2022/05/15 07:05:54;;;;;;;4.13;2.70;;;;;;;;;;4937148;29;20050;-87
2022/05/15 07:08:20;;;;;;;6.75;2.80;;;;;;;;;;4952212;28;20046;-88
2022/05/15 07:10:45;;;;;;;9.25;2.90;;;;;;;;;;4937108;29;20459;-87
2022/05/15 07:13:11;;;;;;;6.15;2.85;;;;;;;;;;4936693;29;20489;-87
2022/05/15 07:15:37;;;;;;;4.38;2.78;;;;;;;;;;4936962;29;20024;-88
2022/05/15 07:18:05;;;;;;;5.53;3.00;;;;;;;;;;4937241;29;20118;-88
2022/05/15 07:20:30;;;;;;;7.47;2.80;;;;;;;;;;4936995;29;20515;-87
2022/05/15 07:22:56;;;;;;;4.15;2.63;;;;;;;;;;4951769;29;20043;-88
2022/05/15 07:25:22;;;;;;;5.88;3.08;;;;;;;;;;4951369;29;20095;-88
2022/05/15 07:27:48;;;;;;;4.18;2.50;;;;;;;;;;4951214;28;20020;-87
2022/05/15 07:30:13;;;;;;;5.72;2.97;;;;;;;;;;4951420;28;20059;-88
2022/05/15 07:32:39;;;;;;;4.57;2.75;;;;;;;;;;4951141;28;20083;-88
2022/05/15 07:35:05;;;;;;;5.60;2.92;;;;;;;;;;4936146;29;20035;-88
2022/05/15 07:37:30;;;;;;;6.65;3.20;;;;;;;;;;4950922;29;20479;-88
2022/05/15 07:39:56;;;;;;;5.95;2.92;;;;;;;;;;4936175;29;20122;-86
2022/05/15 07:42:21;;;;;;;4.95;2.92;;;;;;;;;;4936127;29;20038;-88
2022/05/15 07:44:47;;;;;;;5.30;2.90;;;;;;;;;;4935719;29;20127;-87
2022/05/15 07:47:13;;;;;;;4.68;2.97;;;;;;;;;;4950816;29;20046;-87
2022/05/15 07:49:39;;;;;;;5.95;2.90;;;;;;;;;;4935667;29;20126;-87
2022/05/15 07:52:06;;;;;;;7.22;2.65;;;;;;;;;;4950279;29;20444;-88
2022/05/15 07:54:33;;;;;;;6.25;2.83;;;;;;;;;;4953809;29;20127;-88
2022/05/15 07:56:59;;;;;;;5.68;2.60;;;;;;;;;;4966620;28;20028;-89
2022/05/15 07:59:25;;;;;;;5.28;2.80;;;;;;;;;;4937355;28;20126;-87
2022/05/15 08:01:54;;;;;;;8.77;2.70;;;;;;;;;;4935810;29;20110;-88
2022/05/15 08:04:20;;;;;;;5.68;2.60;;;;;;;;;;4950265;28;20027;-88
2022/05/15 08:09:29;;;;;;;4.65;2.60;;;;;;;;;;4950058;29;20035;-88
2022/05/15 08:11:56;;;;;;;6.47;2.75;;;;;;;;;;4935040;29;20559;-87
2022/05/15 08:14:21;;;;;;;5.22;2.47;;;;;;;;;;4935385;29;20114;-88
2022/05/15 08:16:47;;;;;;;10.75;2.80;;;;;;;;;;4935793;29;20040;-87
2022/05/15 08:24:42;;;;;;;8.07;2.97;;;;;;;;;;4938138;29;20040;-87
2022/05/15 08:27:11;;;;;;;6.13;2.97;;;;;;;;;;4935839;29;20087;-89
2022/05/15 08:29:38;;;;;;;4.95;3.22;;;;;;;;;;4935561;29;20136;-89
2022/05/15 08:32:05;;;;;;;6.80;2.80;;;;;;;;;;4935366;29;20043;-89
2022/05/15 08:34:31;;;;;;;5.78;2.80;;;;;;;;;;4935107;29;20047;-89
2022/05/15 08:36:57;;;;;;;9.52;3.10;;;;;;;;;;4950550;28;20043;-88
2022/05/15 08:39:22;;;;;;;6.57;3.10;;;;;;;;;;4949876;29;20531;-88
2022/05/15 08:41:54;;;;;;;5.43;3.00;;;;;;;;;;4949790;29;20500;-88
2022/05/15 08:44:29;;;;;;;4.55;3.28;;;;;;;;;;4934659;29;20382;-88
2022/05/15 08:46:57;;;;;;;7.75;3.25;;;;;;;;;;4935304;29;20066;-88
2022/05/15 08:49:42;;;;;;;5.78;2.97;;;;;;;;;;4949619;28;20392;-88
2022/05/15 08:52:08;;;;;;;4.80;3.00;;;;;;;;;;4945587;29;20087;-88
2022/05/15 08:54:38;;;;;;;5.55;2.78;;;;;;;;;;4949449;29;20041;-88
2022/05/15 08:57:04;;;;;;;5.95;3.30;;;;;;;;;;4949504;29;20044;-89
2022/05/15 08:59:43;;;;;;;7.25;2.85;;;;;;;;;;4933446;29;20087;-89
2022/05/15 09:02:11;;;;;;;4.82;2.92;;;;;;;;;;4949722;29;20040;-89
2022/05/15 09:04:36;;;;;;;5.72;3.00;;;;;;;;;;4936649;29;20040;-88
2022/05/15 09:07:24;;;;;;;4.82;2.97;;;;;;;;;;4943920;29;20044;-89
2022/05/15 09:10:13;;;;;;;6.18;3.75;;;;;;;;;;4949449;28;20035;-89
2022/05/15 09:12:43;;;;;;;5.80;3.60;;;;;;;;;;4934407;29;20115;-88
2022/05/15 09:15:14;;;;;;;5.18;3.15;;;;;;;;;;4949393;29;20129;-88
2022/05/15 09:18:00;;;;;;;5.93;3.60;;;;;;;;;;4937319;29;20063;-88
2022/05/15 09:20:26;;;;;;;9.15;3.60;;;;;;;;;;4953351;29;20048;-88
2022/05/15 09:23:05;;;;;;;5.20;3.20;;;;;;;;;;4953288;29;20028;-88
2022/05/15 09:25:34;;;;;;;7.03;3.30;;;;;;;;;;4952925;29;20050;-89
2022/05/15 09:28:10;;;;;;;7.32;3.55;;;;;;;;;;4952876;28;20563;-88
2022/05/15 09:30:41;;;;;;;5.70;3.00;;;;;;;;;;4953027;28;20101;-88
2022/05/15 09:33:06;;;;;;;5.50;2.80;;;;;;;;;;4938106;29;20040;-89
2022/05/15 09:35:38;;;;;;;6.25;3.30;;;;;;;;;;4938028;29;20404;-88
2022/05/15 09:43:59;;;;;;;6.22;2.83;;;;;;;;;;4937548;28;20067;-88
2022/05/15 09:46:27;;;;;;;4.18;2.70;;;;;;;;;;4939474;29;20472;-88
2022/05/15 09:49:21;;;;;;;4.85;2.85;;;;;;;;;;4960184;28;20044;-91
2022/05/15 09:51:48;;;;;;;;;;;;;;;;;;4953047;28;20138;-88
2022/05/15 09:54:43;;;;;;;6.00;3.10;;;;;;;;;;4937539;29;20286;-88
2022/05/15 09:57:25;;;;;;;6.50;2.70;;;;;;;;;;4952382;29;20037;-88
2022/05/15 10:00:00;;;;;;;9.73;3.15;;;;;;;;;;4937834;29;20416;-88
2022/05/15 10:02:25;;;;;;;6.72;3.10;;;;;;;;;;4952391;29;20497;-88
2022/05/15 10:04:52;;;;;;;5.63;2.90;;;;;;;;;;4952005;28;20034;-90
2022/05/15 10:07:29;;;;;;;4.35;2.80;;;;;;;;;;4952224;29;20043;-91
2022/05/15 10:09:55;;;;;;;6.78;2.80;;;;;;;;;;4937435;29;20044;-88
2022/05/15 10:12:27;;;;;;;3.97;2.67;;;;;;;;;;4951932;28;20123;-90
2022/05/15 10:15:07;;;;;;;4.68;2.90;;;;;;;;;;4948297;29;20102;-89
2022/05/15 10:17:34;;;;;;;4.97;2.80;;;;;;;;;;4952731;29;20540;-89
2022/05/15 10:20:22;;;;;;;7.05;2.90;;;;;;;;;;4952500;29;20075;-90
2022/05/15 10:23:03;;;;;;;6.30;2.90;;;;;;;;;;4952953;28;20176;-88
2022/05/15 10:25:43;;;;;;;6.07;3.10;;;;;;;;;;4952863;28;20039;-88
2022/05/15 10:28:27;;;;;;;5.53;3.00;;;;;;;;;;4951532;28;20044;-89
2022/05/15 10:31:05;;;;;;;5.20;2.97;;;;;;;;;;4952609;28;20035;-89
2022/05/15 10:33:40;;;;;;;6.72;3.00;;;;;;;;;;4952859;29;20035;-89
2022/05/15 10:36:27;;;;;;;5.63;2.90;;;;;;;;;;4939336;29;20035;-89
2022/05/15 10:39:31;;;;;;;7.05;3.20;;;;;;;;;;4953777;29;20031;-88
2022/05/15 10:42:15;;;;;;;6.22;2.85;;;;;;;;;;4925619;29;20054;-89
2022/05/15 10:45:05;;;;;;;5.75;2.70;;;;;;;;;;4957832;29;20083;-89
2022/05/15 10:47:38;;;;;;;7.28;2.92;;;;;;;;;;4951728;28;20043;-88
2022/05/15 10:50:23;;;;;;;;;;;;;;;;;;4952055;29;20044;-88
2022/05/15 10:57:21;;;;;;;6.47;2.88;;;;;;;;;;4951294;29;19918;-88
2022/05/15 10:58:54;;;;;;;4.25;2.60;;;;;;;;;;4993330;23;20094;-84
2022/05/15 11:01:44;;;;;;;4.07;2.70;;;;;;;;;;4992385;28;20046;-84
2022/05/15 11:04:13;;;;;;;6.55;2.58;;;;;;;;;;4976531;28;20043;-84
2022/05/15 11:07:06;;;;;;;4.45;2.60;;;;;;;;;;4977321;28;20075;-84
2022/05/15 11:09:56;;;;;;;4.75;2.63;;;;;;;;;;4977271;28;20165;-84
2022/05/15 11:12:43;;;;;;;6.78;2.63;;;;;;;;;;4976986;28;20042;-84
2022/05/15 11:15:46;;;;;;;5.28;2.78;;;;;;;;;;4976407;28;20050;-84
2022/05/15 11:18:32;;;;;;;6.50;2.97;;;;;;;;;;4976880;28;20468;-84
2022/05/15 11:21:08;;;;;;;4.63;2.55;;;;;;;;;;4992623;28;20038;-84
2022/05/15 11:23:43;;;;;;;5.53;2.92;;;;;;;;;;4976430;28;20035;-84
2022/05/15 11:26:18;;;;;;;4.90;2.38;;;;;;;;;;4976890;28;20119;-84
2022/05/15 11:28:50;;;;;;;7.55;2.70;;;;;;;;;;4977329;28;20216;-84
2022/05/15 11:31:21;;;;;;;8.30;2.70;;;;;;;;;;4975714;28;20039;-84
2022/05/15 11:33:55;;;;;;;5.55;2.70;;;;;;;;;;4977066;28;20038;-84
2022/05/15 11:36:29;;;;;;;6.13;2.53;;;;;;;;;;4977050;28;20403;-84
2022/05/15 11:39:13;;;;;;;4.93;2.50;;;;;;;;;;4978653;28;20081;-84
2022/05/15 11:41:38;;;;;;;6.22;2.95;;;;;;;;;;4976992;28;20088;-84
2022/05/15 11:44:35;;;;;;;5.03;2.40;;;;;;;;;;4976578;28;20512;-84
2022/05/15 11:47:22;;;;;;;5.35;2.67;;;;;;;;;;4976650;28;20052;-84
2022/05/15 11:50:03;;;;;;;6.50;2.70;;;;;;;;;;4976515;28;20050;-84
2022/05/15 11:52:35;;;;;;;4.28;2.63;;;;;;;;;;4975640;28;20045;-84
2022/05/15 11:55:35;;;;;;;5.43;2.78;;;;;;;;;;4976636;28;20038;-84
2022/05/15 11:58:14;;;;;;;5.20;2.60;;;;;;;;;;4976714;28;20503;-84
2022/05/15 12:00:42;;;;;;;6.05;2.60;;;;;;;;;;4991406;28;20042;-84
2022/05/15 12:03:40;;;;;;;4.55;2.35;;;;;;;;;;4975341;28;20058;-84
2022/05/15 12:06:05;;;;;;;6.45;2.67;;;;;;;;;;4976148;28;20384;-83
2022/05/15 12:08:37;;;;;;;7.22;2.55;;;;;;;;;;4976176;28;20480;-84
2022/05/15 12:11:18;;;;;;;7.55;2.75;;;;;;;;;;4976457;28;20030;-84
2022/05/15 12:13:45;;;;;;;5.90;2.60;;;;;;;;;;4974801;28;20039;-84
2022/05/15 12:16:20;;;;;;;5.53;2.28;;;;;;;;;;4976138;28;20033;-84
2022/05/15 12:18:53;;;;;;;3.90;2.40;;;;;;;;;;4976484;28;20117;-84
2022/05/15 12:21:23;;;;;;;4.05;2.67;;;;;;;;;;4976026;28;20030;-84
2022/05/15 12:27:04;;;;;;;5.60;2.40;;;;;;;;;;4976411;28;20039;-84
2022/05/15 12:29:47;;;;;;;8.90;2.30;;;;;;;;;;4970089;28;20496;-84
2022/05/15 12:32:39;;;;;;;6.22;3.28;;;;;;;;;;4976019;28;20038;-84
2022/05/15 12:35:16;;;;;;;5.85;2.60;;;;;;;;;;4974534;28;20519;-84
2022/05/15 12:38:06;;;;;;;3.55;2.17;;;;;;;;;;4976384;28;20038;-84
2022/05/15 12:40:55;;;;;;;3.78;3.00;;;;;;;;;;4970888;28;20051;-84
2022/05/15 12:43:26;;;;;;;6.93;2.72;;;;;;;;;;4974833;28;20085;-84
2022/05/15 12:45:51;;;;;;;5.75;2.20;;;;;;;;;;4976452;28;20035;-84
2022/05/15 12:48:19;;;;;;;9.60;2.58;;;;;;;;;;4976038;28;20041;-84
2022/05/15 12:51:03;;;;;;;4.47;2.42;;;;;;;;;;4976033;28;20038;-83
2022/05/15 12:53:32;;;;;;;4.35;2.65;;;;;;;;;;4991117;28;20073;-83
2022/05/15 12:56:16;;;;;;;4.18;2.70;;;;;;;;;;4976191;28;20035;-83
2022/05/15 12:58:46;;;;;;;3.90;2.40;;;;;;;;;;4974888;28;20034;-84
2022/05/15 13:01:13;;;;;;;3.70;2.28;;;;;;;;;;4976093;28;20108;-83
2022/05/15 13:03:48;;;;;;;6.93;2.70;;;;;;;;;;4975633;28;20066;-84
2022/05/15 13:06:18;;;;;;;3.45;2.40;;;;;;;;;;4975595;28;20046;-84
2022/05/15 13:08:48;;;;;;;6.40;2.50;;;;;;;;;;4975219;28;20035;-84
2022/05/15 13:11:23;;;;;;;4.47;2.45;;;;;;;;;;4975715;28;20038;-84
2022/05/15 13:13:52;;;;;;;4.25;2.33;;;;;;;;;;4975555;28;20078;-84
2022/05/15 13:16:20;;;;;;;8.00;2.55;;;;;;;;;;4974722;28;20065;-84
2022/05/15 13:18:49;;;;;;;5.63;2.47;;;;;;;;;;4975791;28;20090;-84
2022/05/15 13:21:24;;;;;;;9.10;2.45;;;;;;;;;;4975731;28;20035;-84
2022/05/15 13:23:49;;;;;;;6.18;2.40;;;;;;;;;;4974702;28;20555;-84
2022/05/15 13:26:28;;;;;;;5.63;2.40;;;;;;;;;;4974207;28;20127;-84
2022/05/15 13:28:59;;;;;;;5.18;2.20;;;;;;;;;;4975930;28;20070;-84
2022/05/15 13:31:24;;;;;;;4.57;2.60;;;;;;;;;;4975716;28;20504;-84
2022/05/15 13:33:53;;;;;;;5.30;2.30;;;;;;;;;;4975601;28;20031;-84
2022/05/15 13:36:19;;;;;;;5.68;2.33;;;;;;;;;;4958225;28;20061;-84
2022/05/15 13:44:27;;;;;;;4.20;2.40;;;;;;;;;;4990221;28;20038;-84
2022/05/15 13:47:07;;;;;;;2.97;2.08;;;;;;;;;;4974262;28;20035;-83
2022/05/15 13:49:52;;;;;;;6.20;2.25;;;;;;;;;;4976539;28;20114;-83
2022/05/15 13:52:37;;;;;;;5.28;2.40;;;;;;;;;;4976138;28;20039;-84
2022/05/15 13:55:13;;;;;;;4.20;2.15;;;;;;;;;;4975545;28;20041;-84
2022/05/15 13:57:54;;;;;;;4.00;2.40;;;;;;;;;;4975749;28;20035;-84
2022/05/15 14:00:28;;;;;;;6.15;2.30;;;;;;;;;;4975892;28;20031;-84
2022/05/15 14:02:58;;;;;;;6.60;2.50;;;;;;;;;;4978349;28;20043;-84
2022/05/15 14:05:23;;;;;;;6.45;2.33;;;;;;;;;;4997333;28;20115;-84
2022/05/15 14:07:49;;;;;;;4.10;2.70;;;;;;;;;;4996138;28;20046;-84
2022/05/15 14:10:16;;;;;;;4.07;2.60;;;;;;;;;;4979537;28;20047;-84
2022/05/15 14:12:52;;;;;;;3.53;2.30;;;;;;;;;;4978968;28;20304;-85
2022/05/15 14:15:31;;;;;;;6.40;2.20;;;;;;;;;;4980796;28;20129;-83
2022/05/15 14:18:00;;;;;;;4.57;2.30;;;;;;;;;;4980051;28;20034;-83
2022/05/15 14:20:34;;;;;;;4.25;2.20;;;;;;;;;;4978342;28;20030;-83
2022/05/15 14:23:01;;;;;;;4.20;2.50;;;;;;;;;;4980130;28;20034;-84
2022/05/15 14:25:27;;;;;;;4.80;2.50;;;;;;;;;;4978305;28;20030;-83
2022/05/15 14:27:53;;;;;;;5.85;2.30;;;;;;;;;;4979322;28;20035;-84
2022/05/15 14:30:18;;;;;;;9.75;2.40;;;;;;;;;;4981011;28;20133;-84
2022/05/15 14:32:51;;;;;;;4.18;2.05;;;;;;;;;;4996423;28;20070;-83
2022/05/15 14:35:19;;;;;;;6.22;2.50;;;;;;;;;;4979126;28;20476;-82
2022/05/15 14:37:45;;;;;;;5.80;2.47;;;;;;;;;;4978349;28;20034;-83
2022/05/15 14:40:12;;;;;;;4.15;2.47;;;;;;;;;;4961537;28;20062;-84
2022/05/15 14:42:37;;;;;;;3.40;2.45;;;;;;;;;;4977690;28;20078;-86
2022/05/15 14:45:03;;;;;;;6.18;2.53;;;;;;;;;;4981395;28;20035;-83
2022/05/15 14:47:33;;;;;;;7.03;2.40;;;;;;;;;;4979633;28;20045;-83
2022/05/15 14:50:04;;;;;;;6.20;2.58;;;;;;;;;;4979360;28;20034;-83
2022/05/15 14:52:32;;;;;;;4.03;2.60;;;;;;;;;;4979792;28;20066;-84
2022/05/15 14:54:59;;;;;;;4.82;2.40;;;;;;;;;;4977858;28;20034;-83
2022/05/15 14:57:27;;;;;;;5.18;2.55;;;;;;;;;;4978341;28;20121;-83
2022/05/15 14:59:54;;;;;;;4.93;2.47;;;;;;;;;;4978670;28;20053;-84
2022/05/15 15:02:22;;;;;;;5.82;2.40;;;;;;;;;;4979265;28;20048;-84
2022/05/15 15:04:48;;;;;;;6.25;2.33;;;;;;;;;;4978933;28;20119;-84
2022/05/15 15:07:14;;;;;;;6.45;2.63;;;;;;;;;;4979524;28;20070;-84
2022/05/15 15:09:39;;;;;;;8.43;2.58;;;;;;;;;;4978796;28;20097;-84
2022/05/15 15:12:06;;;;;;;3.88;2.40;;;;;;;;;;4978571;28;20035;-83
2022/05/15 15:14:31;;;;;;;5.93;2.50;;;;;;;;;;4977739;28;20031;-83
2022/05/15 15:16:57;;;;;;;4.25;2.28;;;;;;;;;;4977795;28;20479;-83
2022/05/15 15:19:24;;;;;;;4.07;2.50;;;;;;;;;;4979052;28;20062;-84
2022/05/15 15:21:51;;;;;;;4.72;2.38;;;;;;;;;;4978355;28;20038;-84
2022/05/15 15:24:18;;;;;;;4.15;2.38;;;;;;;;;;4976927;28;20026;-84
2022/05/15 15:26:44;;;;;;;3.60;2.22;;;;;;;;;;4978848;28;20119;-83
2022/05/15 15:29:11;;;;;;;5.53;2.15;;;;;;;;;;4978048;28;20495;-84
2022/05/15 15:31:38;;;;;;;8.85;2.58;;;;;;;;;;4977595;28;20526;-84